Latest Weather Observations for Scoresby

IDV60801

Issued at 10:31 pm EST Friday 6 May 2016 (issued every 30 minutes, with the page automatically refreshed every 10 minutes)

About weather observations | Map of weather stations | Latest weather observations for VIC | Other Formats
Station Details ID: 086104 Name: SCORESBY RESEARCH INSTITUTE Lat: -37.87 Lon: 145.26 Height: 80.0 m
Data from the previous 72 hours. | See also: Recent months at Scoresby
Date/Time
EST
Temp
°C
App
Temp
°C
Dew
Point
Rel
Hum
%
Delta-T
°C
Wind Press
QNH
hPa
Press
MSL
hPa
Rain
since 9 am
mm
Dir
 
Spd
km/h
Gust
km/h
Spd
kts
Gust
kts
06/10:30pm 13.3 13.5 10.5 83 1.5 CALM 0 0 0 0 - - 0.0
06/10:00pm 13.9 13.8 10.7 81 1.7 SSE 2 6 1 3 - - 0.0
06/09:30pm 14.4 13.9 10.8 79 1.9 SSE 4 11 2 6 - - 0.0
06/09:00pm 15.1 14.1 11.1 77 2.1 SSE 7 13 4 7 - - 0.0
06/08:30pm 15.3 14.3 10.9 75 2.3 SSE 7 13 4 7 - - 0.0
06/08:00pm 15.4 14.4 11.0 75 2.4 SSE 7 13 4 7 - - 0.0
06/07:30pm 16.3 14.9 11.0 71 2.8 SE 9 15 5 8 - - 0.0
06/07:00pm 16.7 15.8 11.2 70 3.0 SSE 7 17 4 9 - - 0.0
06/06:30pm 17.4 16.8 10.3 63 3.8 SSW 4 7 2 4 - - 0.0
06/06:00pm 18.1 17.5 8.9 55 4.8 NNE 2 4 1 2 - - 0.0
06/05:30pm 21.7 20.2 8.6 43 6.9 NNW 6 13 3 7 - - 0.0
06/05:00pm 22.3 20.9 8.8 42 7.2 NNW 6 13 3 7 - - 0.0
06/04:30pm 22.9 20.0 8.2 39 7.8 NNW 13 22 7 12 - - 0.0
06/04:00pm 23.5 20.7 8.4 38 8.1 NNW 13 26 7 14 - - 0.0
06/03:30pm 23.2 19.5 8.1 38 8.0 NNW 17 28 9 15 - - 0.0
06/03:00pm 24.0 20.4 8.4 37 8.3 NW 17 32 9 17 - - 0.0
06/02:30pm 23.9 20.7 8.3 37 8.3 NNW 15 30 8 16 - - 0.0
06/02:00pm 24.0 20.4 8.4 37 8.3 NNW 17 32 9 17 - - 0.0
06/01:30pm 24.1 20.5 8.5 37 8.4 NW 17 30 9 16 - - 0.0
06/01:00pm 24.0 20.5 8.8 38 8.2 NW 17 28 9 15 - - 0.0
06/12:30pm 23.9 21.2 9.1 39 8.0 NNW 13 22 7 12 - - 0.0
06/12:00pm 23.1 20.0 8.8 40 7.7 NNW 15 35 8 19 - - 0.0
06/11:30am 22.4 18.4 8.9 42 7.2 N 20 30 11 16 - - 0.0
06/11:00am 22.1 19.2 9.6 45 6.8 N 15 24 8 13 - - 0.0
06/10:30am 21.2 17.9 9.4 47 6.3 N 17 28 9 15 - - 0.0
06/10:00am 20.5 16.7 9.1 48 6.1 N 19 32 10 17 - - 0.0
06/09:30am 19.9 17.0 9.5 51 5.5 N 15 30 8 16 - - 0.0
06/09:00am 18.6 15.7 9.7 56 4.7 NNE 15 26 8 14 - - 0.0
06/08:30am 17.8 14.8 9.2 57 4.5 N 15 24 8 13 - - 0.0
06/08:00am 16.8 14.1 9.0 60 4.0 NNE 13 24 7 13 - - 0.0
06/07:30am 15.6 13.2 8.6 63 3.6 NNE 11 17 6 9 - - 0.0
06/07:00am 15.7 12.5 8.4 62 3.7 NNE 15 20 8 11 - - 0.0
06/06:30am 15.9 12.3 8.4 61 3.8 NNE 17 24 9 13 - - 0.0
06/06:00am 15.9 12.7 8.4 61 3.8 NNE 15 24 8 13 - - 0.0
06/05:30am 16.0 12.7 8.2 60 4.0 NNE 15 24 8 13 - - 0.0
06/05:00am 15.7 12.9 8.4 62 3.7 NNE 13 22 7 12 - - 0.0
06/04:30am 16.0 13.1 8.2 60 4.0 NNE 13 20 7 11 - - 0.0
06/04:00am 16.3 12.7 8.3 59 4.1 NNE 17 26 9 14 - - 0.0
06/03:30am 16.2 12.6 8.2 59 4.1 NNE 17 24 9 13 - - 0.0
06/03:00am 16.4 13.1 8.1 58 4.2 NNE 15 22 8 12 - - 0.0
06/02:30am 16.7 13.4 8.1 57 4.4 NNE 15 28 8 15 - - 0.0
06/02:00am 16.6 13.3 8.1 57 4.3 NNE 15 26 8 14 - - 0.0
06/01:30am 16.7 13.0 8.1 57 4.4 NNE 17 26 9 14 - - 0.0
06/01:00am 17.1 13.4 8.0 55 4.6 NNE 17 24 9 13 - - 0.0
06/12:30am 16.9 13.6 8.1 56 4.5 NNE 15 24 8 13 - - 0.0
06/12:00am 16.8 13.9 8.2 57 4.4 NNE 13 24 7 13 - - 0.0
 
Date/Time
EST
Temp
°C
App
Temp
°C
Dew
Point
Rel
Hum
%
Delta-T
°C
Wind Press
QNH
hPa
Press
MSL
hPa
Rain
since 9 am
mm
Dir
 
Spd
km/h
Gust
km/h
Spd
kts
Gust
kts
05/11:30pm 17.1 13.9 8.3 56 4.5 NNE 15 24 8 13 - - 0.0
05/11:00pm 17.2 14.0 8.4 56 4.5 NNE 15 26 8 14 - - 0.0
05/10:30pm 17.1 13.9 8.3 56 4.5 NNE 15 22 8 12 - - 0.0
05/10:00pm 17.3 13.7 8.4 56 4.6 NNE 17 24 9 13 - - 0.0
05/09:30pm 17.3 13.7 8.4 56 4.6 N 17 28 9 15 - - 0.0
05/09:00pm 16.9 14.1 8.6 58 4.3 NNE 13 24 7 13 - - 0.0
05/08:30pm 16.3 14.6 8.5 60 4.0 NNE 7 17 4 9 - - 0.0
05/08:00pm 16.8 14.4 8.8 59 4.1 NNE 11 19 6 10 - - 0.0
05/07:30pm 17.1 14.4 8.8 58 4.3 NNE 13 22 7 12 - - 0.0
05/07:00pm 17.1 14.0 9.0 59 4.2 NNE 15 24 8 13 - - 0.0
05/06:30pm 17.5 14.1 9.2 58 4.3 N 17 28 9 15 - - 0.0
05/06:00pm 17.7 14.3 9.3 58 4.4 N 17 28 9 15 - - 0.0
05/05:30pm 18.2 14.8 9.3 56 4.7 N 17 24 9 13 - - 0.0
05/05:00pm 18.6 15.3 9.4 55 4.9 N 17 32 9 17 - - 0.0
05/04:30pm 19.2 15.3 9.4 53 5.2 N 20 35 11 19 - - 0.0
05/04:00pm 19.3 15.4 9.5 53 5.2 N 20 32 11 17 - - 0.0
05/03:30pm 19.6 15.9 9.5 52 5.4 N 19 44 10 24 - - 0.0
05/03:00pm 19.4 15.4 9.0 51 5.5 N 20 37 11 20 - - 0.0
05/02:30pm 19.4 15.1 9.3 52 5.3 N 22 39 12 21 - - 0.0
05/02:00pm 19.4 15.0 9.0 51 5.5 N 22 37 12 20 - - 0.0
05/01:30pm 20.2 16.2 9.2 49 5.8 NNW 20 37 11 20 - - 0.0
05/01:00pm 19.9 15.4 8.6 48 5.9 NNW 22 41 12 22 - - 0.0
05/12:30pm 20.0 15.9 8.7 48 5.9 NNW 20 43 11 23 - - 0.0
05/12:00pm 18.9 16.0 9.7 55 4.9 N 15 28 8 15 - - 0.0
05/11:30am 17.8 14.3 8.9 56 4.6 N 17 32 9 17 - - 0.0
05/11:00am 17.9 15.2 9.0 56 4.6 N 13 24 7 13 - - 0.0
05/10:30am 17.0 13.0 8.4 57 4.4 N 19 33 10 18 - - 0.0
05/10:00am 16.6 13.0 8.3 58 4.2 NNE 17 24 9 13 - - 0.0
05/09:30am 16.2 12.9 8.2 59 4.1 NNE 15 24 8 13 - - 0.0
05/09:00am 15.5 12.1 7.5 59 4.0 NNE 15 24 8 13 - - 0.0
05/08:30am 14.9 11.4 7.2 60 3.8 N 15 24 8 13 - - 0.0
05/08:00am 14.3 10.7 6.9 61 3.6 NNE 15 24 8 13 - - 0.0
05/07:30am 13.7 10.2 7.0 64 3.3 NNE 15 28 8 15 - - 0.0
05/07:00am 13.9 10.4 7.0 63 3.4 NNE 15 24 8 13 - - 0.0
05/06:30am 13.7 10.2 7.2 65 3.2 NNE 15 24 8 13 - - 0.0
05/06:00am 13.6 10.5 7.2 65 3.1 NNE 13 22 7 12 - - 0.0
05/05:30am 14.0 11.0 7.5 65 3.2 N 13 24 7 13 - - 0.0
05/05:00am 13.9 10.8 7.4 65 3.2 NNE 13 24 7 13 - - 0.0
05/04:30am 13.3 10.6 7.3 67 2.9 NNE 11 17 6 9 - - 0.0
05/04:00am 13.3 10.9 7.1 66 3.0 N 9 13 5 7 - - 0.0
05/03:30am 12.6 10.7 6.9 68 2.7 N 6 9 3 5 - - 0.0
05/03:00am 12.4 10.5 6.9 69 2.6 NNW 6 9 3 5 - - 0.0
05/02:30am 12.5 10.4 6.5 67 2.9 N 7 13 4 7 - - 0.0
05/02:00am 12.4 9.9 6.5 67 2.8 N 9 13 5 7 - - 0.0
05/01:30am 12.5 10.3 6.3 66 2.9 N 7 15 4 8 - - 0.0
05/01:00am 12.5 10.3 6.3 66 2.9 N 7 11 4 6 - - 0.0
05/12:30am 12.6 10.4 6.4 66 3.0 N 7 13 4 7 - - 0.0
05/12:00am 12.7 10.1 6.3 65 3.0 NNE 9 17 5 9 - - 0.0
 
Date/Time
EST
Temp
°C
App
Temp
°C
Dew
Point
Rel
Hum
%
Delta-T
°C
Wind Press
QNH
hPa
Press
MSL
hPa
Rain
since 9 am
mm
Dir
 
Spd
km/h
Gust
km/h
Spd
kts
Gust
kts
04/11:30pm 13.2 10.7 6.5 64 3.2 N 9 17 5 9 - - 0.0
04/11:00pm 13.7 10.8 6.6 62 3.4 NNE 11 19 6 10 - - 0.0
04/10:30pm 14.0 11.1 6.6 61 3.6 N 11 19 6 10 - - 0.0
04/10:00pm 13.9 11.4 6.5 61 3.6 N 9 20 5 11 - - 0.0
04/09:30pm 14.1 11.2 6.5 60 3.7 N 11 19 6 10 - - 0.0
04/09:00pm 14.1 11.1 6.2 59 3.8 N 11 19 6 10 - - 0.0
04/08:30pm 14.3 11.3 6.2 58 3.9 N 11 19 6 10 - - 0.0
04/08:00pm 14.3 11.3 6.2 58 3.9 N 11 20 6 11 - - 0.0
04/07:30pm 14.3 11.3 6.2 58 3.9 N 11 20 6 11 - - 0.0
04/07:00pm 14.4 11.0 6.0 57 4.0 N 13 24 7 13 - - 0.0
04/06:30pm 14.4 11.8 6.0 57 4.0 N 9 15 5 8 - - 0.0
04/06:00pm 14.6 12.0 5.9 56 4.2 N 9 17 5 9 - - 0.0
04/05:30pm 14.8 11.0 5.9 55 4.3 N 15 22 8 12 - - 0.0
04/05:00pm 15.1 11.6 5.6 53 4.5 N 13 26 7 14 - - 0.0
04/04:30pm 15.5 12.2 4.8 49 5.0 NNW 11 22 6 12 - - 0.0
04/04:00pm 15.6 12.3 4.3 47 5.3 NNW 11 24 6 13 - - 0.0
04/03:30pm 15.6 12.0 4.9 49 5.1 NNW 13 24 7 13 - - 0.0
04/03:00pm 15.9 11.8 4.3 46 5.4 NNW 15 26 8 14 - - 0.0
04/02:30pm 15.8 11.7 4.5 47 5.3 NNW 15 26 8 14 - - 0.0
04/02:00pm 16.0 12.0 4.7 47 5.3 NNW 15 26 8 14 - - 0.0
04/01:30pm 15.2 11.6 4.9 50 4.9 NW 13 26 7 14 - - 0.0
04/01:00pm 16.2 13.1 5.5 49 5.1 NW 11 22 6 12 - - 0.0
04/12:30pm 16.5 13.3 4.9 46 5.5 NNW 11 26 6 14 - - 0.0
04/12:00pm 15.5 12.2 4.8 49 5.0 NNW 11 20 6 11 - - 0.0
04/11:30am 15.2 11.7 5.4 52 4.7 NNW 13 19 7 10 - - 0.0
04/11:00am 14.5 11.4 5.6 55 4.2 NNW 11 20 6 11 - - 0.0
04/10:30am 14.0 11.2 5.1 55 4.2 NW 9 19 5 10 - - 0.0
04/10:00am 13.2 10.1 5.6 60 3.6 NW 11 22 6 12 - - 0.0
04/09:30am 12.6 10.1 6.6 67 2.9 N 9 17 5 9 - - 0.0
04/09:00am 11.3 8.7 6.0 70 2.5 NNE 9 19 5 10 - - 5.0
04/08:30am 10.4 7.7 5.4 71 2.3 NNE 9 17 5 9 - - 5.0
04/08:00am 9.4 6.7 5.4 76 1.8 NNE 9 13 5 7 - - 5.0
04/07:30am 8.0 5.7 4.8 80 1.4 NE 6 9 3 5 - - 5.0
04/07:00am 7.6 5.6 4.6 81 1.3 NNE 4 7 2 4 - - 5.0
04/06:30am 7.1 4.8 4.6 84 1.1 NE 6 7 3 4 - - 5.0
04/06:00am 7.2 4.9 4.9 85 1.0 NE 6 7 3 4 - - 5.0
04/05:30am 7.0 5.5 4.8 86 1.0 NE 2 4 1 2 - - 5.0
04/05:00am 7.9 6.0 4.7 80 1.4 NE 4 7 2 4 - - 5.0
04/04:30am 7.5 5.9 4.6 82 1.3 N 2 4 1 2 - - 5.0
04/04:00am 7.8 6.7 5.3 84 1.1 CALM 0 4 0 2 - - 5.0
04/03:30am 7.9 6.7 4.5 79 1.5 CALM 0 2 0 1 - - 5.0
04/03:00am 9.9 8.3 4.7 70 2.3 N 2 6 1 3 - - 5.0
04/02:30am 10.9 8.7 5.2 68 2.6 NNW 6 13 3 7 - - 5.0
04/02:00am 11.1 8.7 5.2 67 2.7 NW 7 11 4 6 - - 5.0
04/01:30am 11.5 9.1 5.2 65 2.9 NW 7 13 4 7 - - 5.0
04/01:00am 12.0 8.9 5.4 64 3.1 WNW 11 19 6 10 - - 5.0
04/12:30am 12.1 9.7 5.3 63 3.2 WNW 7 17 4 9 - - 5.0
04/12:00am 12.2 10.8 5.6 64 3.1 NW 2 6 1 3 - - 5.0
 
Date/Time
EST
Temp
°C
App
Temp
°C
Dew
Point
Rel
Hum
%
Delta-T
°C
Wind Press
QNH
hPa
Press
MSL
hPa
Rain
since 9 am
mm
Dir
 
Spd
km/h
Gust
km/h
Spd
kts
Gust
kts
03/11:30pm 12.6 10.3 4.8 59 3.6 WNW 6 15 3 8 - - 5.0
03/11:00pm 12.4 10.0 5.1 61 3.4 WNW 7 13 4 7 - - 5.0

Other Formats:

Comma delimited format used in spreadsheet applications
http://www.bom.gov.au/fwo/IDV60801/IDV60801.95867.axf

JavaScript Object Notation format (JSON) in row-major order
http://www.bom.gov.au/fwo/IDV60801/IDV60801.95867.json